Time;durP1;ratioP1;P1;durP2;ratioP2;P2;SDS_P1;SDS_P2;PMS_P1;PMS_P2;Temp;Humidity;BMP_temperature;BMP_pressure;BME280_temperature;BME280_humidity;BME280_pressure;Samples;Min_cycle;Max_cycle;Signal;HPM_P1;HPM_P2
2022/11/13 00:00:29;;;;;;;10.73;9.77;;;;;;;;;;4966533;28;20240;-73
2022/11/13 00:03:16;;;;;;;10.80;9.70;;;;;;;;;;4979720;28;20224;-74
2022/11/13 00:06:00;;;;;;;10.33;9.43;;;;;;;;;;4963010;28;20248;-73
2022/11/13 00:08:47;;;;;;;10.53;9.57;;;;;;;;;;4963206;28;20229;-73
2022/11/13 00:11:34;;;;;;;10.30;9.40;;;;;;;;;;4979538;28;20228;-73
2022/11/13 00:14:20;;;;;;;10.47;9.57;;;;;;;;;;4965514;28;20353;-73
2022/11/13 00:17:07;;;;;;;9.53;8.73;;;;;;;;;;4978475;28;20296;-73
2022/11/13 00:19:52;;;;;;;9.43;8.63;;;;;;;;;;4978756;28;20275;-73
2022/11/13 00:22:38;;;;;;;12.50;9.23;;;;;;;;;;4966575;28;20656;-73
2022/11/13 00:25:22;;;;;;;10.27;9.17;;;;;;;;;;4976811;28;20766;-73
2022/11/13 00:28:06;;;;;;;10.40;9.40;;;;;;;;;;4953182;28;20239;-73
2022/11/13 00:30:52;;;;;;;10.17;9.17;;;;;;;;;;4989650;28;20228;-73
2022/11/13 00:33:39;;;;;;;10.30;9.30;;;;;;;;;;4977723;28;20286;-73
2022/11/13 00:36:24;;;;;;;10.47;9.57;;;;;;;;;;4975190;28;20332;-74
2022/11/13 00:39:08;;;;;;;11.57;10.47;;;;;;;;;;4975699;28;20305;-73
2022/11/13 00:41:55;;;;;;;11.37;10.27;;;;;;;;;;4979133;28;20769;-73
2022/11/13 00:44:38;;;;;;;11.57;10.47;;;;;;;;;;4976967;28;20235;-73
2022/11/13 00:47:23;;;;;;;11.97;10.53;;;;;;;;;;4967417;28;20260;-73
2022/11/13 00:50:10;;;;;;;11.97;10.87;;;;;;;;;;4979415;28;20231;-74
2022/11/13 00:52:56;;;;;;;11.97;10.83;;;;;;;;;;4963660;28;20239;-73
2022/11/13 00:55:45;;;;;;;11.70;10.30;;;;;;;;;;4977231;28;20240;-74
2022/11/13 00:58:32;;;;;;;12.53;11.20;;;;;;;;;;4975380;28;20304;-73
2022/11/13 01:01:22;;;;;;;11.63;10.63;;;;;;;;;;4936526;28;20232;-74
2022/11/13 01:04:08;;;;;;;11.27;10.17;;;;;;;;;;4980613;28;20240;-73
2022/11/13 01:06:54;;;;;;;10.73;9.73;;;;;;;;;;4972756;28;20224;-73
2022/11/13 01:09:40;;;;;;;10.20;9.30;;;;;;;;;;4963034;28;20291;-73
2022/11/13 01:12:27;;;;;;;11.40;10.30;;;;;;;;;;4987256;28;20232;-73
2022/11/13 01:15:11;;;;;;;10.57;9.43;;;;;;;;;;4988095;28;20718;-73
2022/11/13 01:17:55;;;;;;;9.90;9.00;;;;;;;;;;4975986;28;20236;-73
2022/11/13 01:20:41;;;;;;;10.47;9.57;;;;;;;;;;4978149;28;20586;-74
2022/11/13 01:23:25;;;;;;;10.70;9.77;;;;;;;;;;4962848;28;20283;-73
2022/11/13 01:26:16;;;;;;;10.87;9.87;;;;;;;;;;4974997;28;20224;-74
2022/11/13 01:29:02;;;;;;;10.63;9.63;;;;;;;;;;4993360;28;20237;-73
2022/11/13 01:31:51;;;;;;;11.00;9.90;;;;;;;;;;4962821;28;20220;-73
2022/11/13 01:34:38;;;;;;;10.40;9.50;;;;;;;;;;4977943;28;20244;-73
2022/11/13 01:37:24;;;;;;;10.30;9.40;;;;;;;;;;4957362;28;20348;-73
2022/11/13 01:40:13;;;;;;;11.03;9.60;;;;;;;;;;4979832;28;20311;-73
2022/11/13 01:42:57;;;;;;;10.67;9.73;;;;;;;;;;4963354;28;20276;-74
2022/11/13 01:46:00;;;;;;;11.07;9.70;;;;;;;;;;4977585;28;20240;-74
2022/11/13 01:49:10;;;;;;;10.87;9.73;;;;;;;;;;4989944;28;20283;-74
2022/11/13 01:52:02;;;;;;;10.17;9.27;;;;;;;;;;4966611;28;20364;-75
2022/11/13 01:54:52;;;;;;;9.53;8.63;;;;;;;;;;4949124;28;20236;-74
2022/11/13 01:57:41;;;;;;;9.10;8.40;;;;;;;;;;4978410;28;20290;-75
2022/11/13 02:00:27;;;;;;;8.37;7.67;;;;;;;;;;4983379;28;20288;-72
2022/11/13 02:03:11;;;;;;;9.80;8.80;;;;;;;;;;4982433;28;20235;-74
2022/11/13 02:06:00;;;;;;;8.93;8.13;;;;;;;;;;4992654;28;20228;-73
2022/11/13 02:08:44;;;;;;;10.13;7.93;;;;;;;;;;5009469;28;20232;-74
2022/11/13 02:11:32;;;;;;;9.47;8.67;;;;;;;;;;4967024;28;20671;-74
2022/11/13 02:14:16;;;;;;;10.10;9.00;;;;;;;;;;4969438;28;20236;-73
2022/11/13 02:17:03;;;;;;;9.83;8.93;;;;;;;;;;4971881;28;20287;-73
2022/11/13 02:19:51;;;;;;;11.40;10.27;;;;;;;;;;4966390;28;20236;-74
2022/11/13 02:22:44;;;;;;;10.23;9.23;;;;;;;;;;4963987;28;20276;-74
2022/11/13 02:25:30;;;;;;;9.50;8.60;;;;;;;;;;4991243;28;20288;-75
2022/11/13 02:28:17;;;;;;;10.47;9.40;;;;;;;;;;4991926;28;20272;-74
2022/11/13 02:31:09;;;;;;;10.30;8.90;;;;;;;;;;4980604;28;20283;-74
2022/11/13 02:33:53;;;;;;;10.30;9.30;;;;;;;;;;4982144;28;20268;-74
2022/11/13 02:36:40;;;;;;;10.07;9.23;;;;;;;;;;4959281;28;20332;-73
2022/11/13 02:39:25;;;;;;;10.40;9.43;;;;;;;;;;4994870;28;20280;-73
2022/11/13 02:42:13;;;;;;;11.03;9.67;;;;;;;;;;4979217;28;20727;-74
2022/11/13 02:44:58;;;;;;;10.53;9.53;;;;;;;;;;4978609;28;20227;-72
2022/11/13 02:47:42;;;;;;;11.20;10.03;;;;;;;;;;4968987;28;20758;-73
2022/11/13 02:50:29;;;;;;;10.20;9.30;;;;;;;;;;4965199;28;20276;-73
2022/11/13 02:53:15;;;;;;;10.50;9.33;;;;;;;;;;4982537;28;20247;-74
2022/11/13 02:56:01;;;;;;;11.73;10.67;;;;;;;;;;4979006;28;20332;-74
2022/11/13 02:58:50;;;;;;;11.43;10.40;;;;;;;;;;4967700;28;20236;-73
2022/11/13 03:01:36;;;;;;;12.03;10.67;;;;;;;;;;4965028;28;20283;-74
2022/11/13 03:04:21;;;;;;;11.97;10.87;;;;;;;;;;4959984;28;20236;-74
2022/11/13 03:07:09;;;;;;;12.33;11.13;;;;;;;;;;4980494;28;20247;-73
2022/11/13 03:09:56;;;;;;;12.00;10.90;;;;;;;;;;4977905;28;20757;-73
2022/11/13 03:12:45;;;;;;;13.37;12.07;;;;;;;;;;4963946;28;20260;-74
2022/11/13 03:15:29;;;;;;;12.70;11.50;;;;;;;;;;4968149;28;20235;-74
2022/11/13 03:18:13;;;;;;;13.23;11.87;;;;;;;;;;4980571;28;20269;-73
2022/11/13 03:21:05;;;;;;;14.63;13.23;;;;;;;;;;4980386;28;20227;-73
2022/11/13 03:23:51;;;;;;;16.60;14.90;;;;;;;;;;4989658;28;20236;-73
2022/11/13 03:26:37;;;;;;;14.17;12.87;;;;;;;;;;4981751;28;20236;-73
2022/11/13 03:29:21;;;;;;;14.30;13.00;;;;;;;;;;4980411;28;20291;-73
2022/11/13 03:32:08;;;;;;;14.80;13.33;;;;;;;;;;4968800;28;20576;-75
2022/11/13 03:34:52;;;;;;;14.57;13.27;;;;;;;;;;4992698;28;20610;-73
2022/11/13 03:37:36;;;;;;;15.07;13.57;;;;;;;;;;4978353;28;20241;-73
2022/11/13 03:40:23;;;;;;;15.87;14.47;;;;;;;;;;4965279;28;20296;-74
2022/11/13 03:43:09;;;;;;;15.33;13.93;;;;;;;;;;4962738;28;20224;-73
2022/11/13 03:45:53;;;;;;;15.93;14.50;;;;;;;;;;4980337;28;20232;-74
2022/11/13 03:48:37;;;;;;;16.23;14.53;;;;;;;;;;4968811;28;20295;-73
2022/11/13 03:51:21;;;;;;;16.67;15.00;;;;;;;;;;4978314;28;20236;-74
2022/11/13 03:54:06;;;;;;;17.13;15.43;;;;;;;;;;4964584;28;20225;-74
2022/11/13 03:56:52;;;;;;;16.43;14.93;;;;;;;;;;4979732;28;20299;-73
2022/11/13 03:59:36;;;;;;;16.93;15.43;;;;;;;;;;4978088;28;20236;-72
2022/11/13 04:02:23;;;;;;;16.50;15.07;;;;;;;;;;4992243;28;20260;-73
2022/11/13 04:05:10;;;;;;;17.63;16.07;;;;;;;;;;4954697;28;20228;-74
2022/11/13 04:07:57;;;;;;;17.13;15.53;;;;;;;;;;4953384;28;20240;-74
2022/11/13 04:10:44;;;;;;;16.87;15.27;;;;;;;;;;4962383;28;20371;-74
2022/11/13 04:13:28;;;;;;;17.57;15.97;;;;;;;;;;4980073;28;20231;-75
2022/11/13 04:16:12;;;;;;;16.67;15.13;;;;;;;;;;4964817;28;20236;-75
2022/11/13 04:18:56;;;;;;;16.50;15.03;;;;;;;;;;4977700;28;20247;-74
2022/11/13 04:21:40;;;;;;;16.60;15.13;;;;;;;;;;4964611;28;20228;-74
2022/11/13 04:24:24;;;;;;;18.13;16.23;;;;;;;;;;4965407;28;20236;-74
2022/11/13 04:27:08;;;;;;;16.53;15.20;;;;;;;;;;4965310;28;20319;-74
2022/11/13 04:29:55;;;;;;;18.50;16.90;;;;;;;;;;4990103;28;20251;-74
2022/11/13 04:32:39;;;;;;;18.83;16.83;;;;;;;;;;4970321;28;20248;-74
2022/11/13 04:35:23;;;;;;;19.97;17.77;;;;;;;;;;4976856;28;20280;-74
2022/11/13 04:38:07;;;;;;;17.63;16.10;;;;;;;;;;4964951;28;20320;-75
2022/11/13 04:42:47;;;;;;;17.90;16.30;;;;;;;;;;4987081;28;20263;-75
2022/11/13 04:43:58;;;;;;;18.27;16.50;;;;;;;;;;4988669;28;20612;-74
2022/11/13 04:46:42;;;;;;;18.43;16.83;;;;;;;;;;4977728;28;20264;-75
2022/11/13 04:49:30;;;;;;;18.23;16.53;;;;;;;;;;4961348;28;20225;-74
2022/11/13 04:52:16;;;;;;;19.73;17.83;;;;;;;;;;4965283;28;20598;-74
2022/11/13 04:55:03;;;;;;;17.37;15.87;;;;;;;;;;4978813;28;20247;-72
2022/11/13 04:57:50;;;;;;;17.83;16.13;;;;;;;;;;4978928;28;20252;-74
2022/11/13 05:00:37;;;;;;;18.17;16.37;;;;;;;;;;4988067;28;20231;-74
2022/11/13 05:03:22;;;;;;;18.47;16.67;;;;;;;;;;4949581;28;20662;-74
2022/11/13 05:06:08;;;;;;;18.63;16.83;;;;;;;;;;4989392;28;20224;-74
2022/11/13 05:08:54;;;;;;;18.00;16.30;;;;;;;;;;4979067;28;20267;-74
2022/11/13 05:11:43;;;;;;;18.27;16.53;;;;;;;;;;4980148;28;20282;-74
2022/11/13 05:14:29;;;;;;;17.47;15.77;;;;;;;;;;4988577;28;20299;-73
2022/11/13 05:17:18;;;;;;;17.47;15.90;;;;;;;;;;4963840;28;20288;-73
2022/11/13 05:20:03;;;;;;;18.37;16.60;;;;;;;;;;4977298;28;20271;-73
2022/11/13 05:22:46;;;;;;;17.27;15.67;;;;;;;;;;4965528;28;20251;-73
2022/11/13 05:25:31;;;;;;;18.73;16.83;;;;;;;;;;4988540;28;20718;-75
2022/11/13 05:28:15;;;;;;;20.47;17.50;;;;;;;;;;4976161;28;20225;-75
2022/11/13 05:31:06;;;;;;;18.10;16.40;;;;;;;;;;4972949;28;20232;-74
2022/11/13 05:33:52;;;;;;;17.67;15.87;;;;;;;;;;4980767;28;20220;-73
2022/11/13 05:36:39;;;;;;;18.03;16.23;;;;;;;;;;4980033;28;20360;-73
2022/11/13 05:39:26;;;;;;;17.53;15.93;;;;;;;;;;4966666;28;20264;-73
2022/11/13 05:42:12;;;;;;;17.63;16.00;;;;;;;;;;4981215;28;20712;-74
2022/11/13 05:44:56;;;;;;;18.40;16.70;;;;;;;;;;4992085;28;20260;-73
2022/11/13 05:47:45;;;;;;;19.00;17.20;;;;;;;;;;4994588;28;20259;-74
2022/11/13 05:50:31;;;;;;;17.83;16.27;;;;;;;;;;4991965;28;20275;-74
2022/11/13 05:53:18;;;;;;;19.10;17.13;;;;;;;;;;4965776;28;20393;-74
2022/11/13 05:56:07;;;;;;;17.43;15.83;;;;;;;;;;4978349;28;20237;-73
2022/11/13 05:58:55;;;;;;;18.10;16.40;;;;;;;;;;4980212;28;20224;-74
2022/11/13 06:01:41;;;;;;;18.60;16.80;;;;;;;;;;4967793;28;20654;-73
2022/11/13 06:04:29;;;;;;;17.23;15.67;;;;;;;;;;4952475;28;20249;-74
2022/11/13 06:07:13;;;;;;;17.63;15.87;;;;;;;;;;4991595;28;20320;-74
2022/11/13 06:09:57;;;;;;;17.87;16.17;;;;;;;;;;4955478;28;20236;-75
2022/11/13 06:12:41;;;;;;;16.97;15.33;;;;;;;;;;4981241;28;20236;-74
2022/11/13 06:15:25;;;;;;;17.80;16.20;;;;;;;;;;4968731;28;20232;-73
2022/11/13 06:18:12;;;;;;;17.17;15.50;;;;;;;;;;4980096;28;20237;-74
2022/11/13 06:21:03;;;;;;;17.20;15.60;;;;;;;;;;4994177;28;20248;-73
2022/11/13 06:23:50;;;;;;;17.83;16.27;;;;;;;;;;4957703;28;20352;-74
2022/11/13 06:26:34;;;;;;;18.63;16.83;;;;;;;;;;4964358;28;20220;-74
2022/11/13 06:29:19;;;;;;;18.83;16.87;;;;;;;;;;4962235;28;20788;-74
2022/11/13 06:32:03;;;;;;;17.20;15.30;;;;;;;;;;4981370;28;20229;-75
2022/11/13 06:34:47;;;;;;;17.60;15.97;;;;;;;;;;4995411;28;20271;-75
2022/11/13 06:37:31;;;;;;;18.30;16.63;;;;;;;;;;4981076;28;20292;-75
2022/11/13 06:40:15;;;;;;;18.00;16.30;;;;;;;;;;4978314;28;20236;-74
2022/11/13 06:42:59;;;;;;;17.63;16.03;;;;;;;;;;4980600;28;20772;-74
2022/11/13 06:45:46;;;;;;;16.70;15.10;;;;;;;;;;4980772;28;20292;-74
2022/11/13 06:48:33;;;;;;;17.77;16.10;;;;;;;;;;4952187;28;20287;-74
2022/11/13 06:51:19;;;;;;;18.50;16.70;;;;;;;;;;4981284;28;20225;-74
2022/11/13 06:54:03;;;;;;;16.87;15.40;;;;;;;;;;4962531;28;20665;-73
2022/11/13 06:56:47;;;;;;;18.47;16.57;;;;;;;;;;4991278;28;20734;-74
2022/11/13 06:59:31;;;;;;;17.07;15.47;;;;;;;;;;4976869;28;20224;-73
2022/11/13 07:02:16;;;;;;;18.57;16.83;;;;;;;;;;4980151;28;20308;-74
2022/11/13 07:05:00;;;;;;;18.20;16.33;;;;;;;;;;4976504;28;20236;-73
2022/11/13 07:07:44;;;;;;;18.40;16.50;;;;;;;;;;4981106;28;20356;-73
2022/11/13 07:10:28;;;;;;;18.97;17.10;;;;;;;;;;4989538;28;20232;-72
2022/11/13 07:13:17;;;;;;;18.23;16.37;;;;;;;;;;4975173;28;20240;-73
2022/11/13 07:16:04;;;;;;;17.77;16.07;;;;;;;;;;4975784;28;20305;-73
2022/11/13 07:18:52;;;;;;;18.47;16.63;;;;;;;;;;4967126;28;20232;-73
2022/11/13 07:21:36;;;;;;;17.80;16.20;;;;;;;;;;4975628;28;20308;-73
2022/11/13 07:24:20;;;;;;;19.17;17.47;;;;;;;;;;4953571;28;20236;-73
2022/11/13 07:27:07;;;;;;;19.27;17.43;;;;;;;;;;4979478;28;20232;-74
2022/11/13 07:29:51;;;;;;;18.67;17.03;;;;;;;;;;4967900;28;20263;-74
2022/11/13 07:32:36;;;;;;;20.27;18.17;;;;;;;;;;4976796;28;20337;-74
2022/11/13 07:35:23;;;;;;;19.20;17.40;;;;;;;;;;4979852;28;20283;-74
2022/11/13 07:38:07;;;;;;;19.67;17.70;;;;;;;;;;4965813;28;20237;-74
2022/11/13 07:40:51;;;;;;;20.10;18.23;;;;;;;;;;4977413;28;20773;-74
2022/11/13 07:43:35;;;;;;;20.00;17.97;;;;;;;;;;4961433;28;20240;-74
2022/11/13 07:46:19;;;;;;;22.57;19.60;;;;;;;;;;4977705;28;20283;-73
2022/11/13 07:49:09;;;;;;;19.40;17.60;;;;;;;;;;4966403;28;20741;-74
2022/11/13 07:51:53;;;;;;;20.63;18.63;;;;;;;;;;4978484;28;20232;-76
2022/11/13 07:54:37;;;;;;;20.57;18.37;;;;;;;;;;4967853;28;20287;-75
2022/11/13 07:57:21;;;;;;;20.83;18.73;;;;;;;;;;4964805;28;20913;-73
2022/11/13 08:00:08;;;;;;;21.47;19.27;;;;;;;;;;4960694;28;20368;-74
2022/11/13 08:02:54;;;;;;;21.70;19.17;;;;;;;;;;4989070;28;20648;-74
2022/11/13 08:05:39;;;;;;;21.93;19.57;;;;;;;;;;4964194;28;20228;-73
2022/11/13 08:08:23;;;;;;;22.50;20.27;;;;;;;;;;4951202;28;20256;-74
2022/11/13 08:11:08;;;;;;;22.27;20.07;;;;;;;;;;4979601;28;20236;-75
2022/11/13 08:13:52;;;;;;;22.53;19.83;;;;;;;;;;4981219;28;20742;-73
2022/11/13 08:16:41;;;;;;;23.50;20.80;;;;;;;;;;4963585;28;20321;-73
2022/11/13 08:19:28;;;;;;;23.77;20.77;;;;;;;;;;4997150;28;20328;-72
2022/11/13 08:22:14;;;;;;;25.30;19.93;;;;;;;;;;4977889;28;20263;-74
2022/11/13 08:24:58;;;;;;;23.67;20.80;;;;;;;;;;4973220;28;20930;-73
2022/11/13 08:27:44;;;;;;;23.47;20.20;;;;;;;;;;4962614;28;20313;-74
2022/11/13 08:30:29;;;;;;;23.47;20.90;;;;;;;;;;4969515;28;20236;-72
2022/11/13 08:33:13;;;;;;;22.47;19.43;;;;;;;;;;4960443;28;20221;-72
2022/11/13 08:35:58;;;;;;;21.93;19.63;;;;;;;;;;4968988;28;20287;-72
2022/11/13 08:38:42;;;;;;;23.50;21.03;;;;;;;;;;4980198;28;20224;-75
2022/11/13 08:41:29;;;;;;;23.47;20.77;;;;;;;;;;4968821;28;20236;-72
2022/11/13 08:44:14;;;;;;;26.27;21.80;;;;;;;;;;4963841;28;20220;-74
2022/11/13 08:47:00;;;;;;;23.43;20.30;;;;;;;;;;4964225;28;20781;-74
2022/11/13 08:49:44;;;;;;;25.30;20.63;;;;;;;;;;4993169;28;20240;-72
2022/11/13 08:52:29;;;;;;;22.97;20.27;;;;;;;;;;4987393;28;20268;-76
2022/11/13 08:55:17;;;;;;;22.23;19.53;;;;;;;;;;4967840;28;20268;-74
2022/11/13 08:58:02;;;;;;;22.80;20.43;;;;;;;;;;4949676;28;20280;-76
2022/11/13 09:00:51;;;;;;;23.80;21.30;;;;;;;;;;4969668;28;20247;-74
2022/11/13 09:03:36;;;;;;;23.47;20.57;;;;;;;;;;4963694;28;20782;-74
2022/11/13 09:06:22;;;;;;;22.53;20.20;;;;;;;;;;4972418;28;20231;-73
2022/11/13 09:09:07;;;;;;;22.50;20.07;;;;;;;;;;4987834;28;20235;-75
2022/11/13 09:11:53;;;;;;;22.23;18.87;;;;;;;;;;4976977;28;20245;-74
2022/11/13 09:14:40;;;;;;;21.87;19.67;;;;;;;;;;4975872;28;20312;-74
2022/11/13 09:17:29;;;;;;;20.63;17.87;;;;;;;;;;4976688;28;20777;-74
2022/11/13 09:20:14;;;;;;;21.93;18.87;;;;;;;;;;4979055;28;20220;-75
2022/11/13 09:23:02;;;;;;;21.10;18.80;;;;;;;;;;4965078;28;20244;-73
2022/11/13 09:25:48;;;;;;;21.33;19.03;;;;;;;;;;4977998;28;20365;-72
2022/11/13 09:28:33;;;;;;;20.87;18.37;;;;;;;;;;4978920;28;20231;-72
2022/11/13 09:31:23;;;;;;;20.43;18.20;;;;;;;;;;4968123;28;20291;-73
2022/11/13 09:34:13;;;;;;;20.33;16.97;;;;;;;;;;4976760;28;20278;-73
2022/11/13 09:36:57;;;;;;;19.20;16.93;;;;;;;;;;4976799;28;20236;-78
2022/11/13 09:39:52;;;;;;;18.10;16.33;;;;;;;;;;4974737;28;20244;-74
2022/11/13 09:42:36;;;;;;;18.97;17.03;;;;;;;;;;4988894;28;20292;-74
2022/11/13 09:45:20;;;;;;;18.57;16.77;;;;;;;;;;4978489;28;20224;-73
2022/11/13 09:48:20;;;;;;;18.37;16.40;;;;;;;;;;4962613;28;20606;-73
2022/11/13 09:51:15;;;;;;;17.50;15.73;;;;;;;;;;4977524;28;20367;-73
2022/11/13 09:54:05;;;;;;;17.20;15.57;;;;;;;;;;4977232;28;20224;-73
2022/11/13 09:57:18;;;;;;;15.73;14.17;;;;;;;;;;4963596;28;20403;-74
2022/11/13 10:00:10;;;;;;;16.47;14.80;;;;;;;;;;4964728;28;20220;-71
2022/11/13 10:03:09;;;;;;;15.60;14.10;;;;;;;;;;4991470;28;20773;-74
2022/11/13 10:06:03;;;;;;;15.43;14.00;;;;;;;;;;4987227;28;20257;-73
2022/11/13 10:08:59;;;;;;;15.47;13.97;;;;;;;;;;4976192;28;20649;-74
2022/11/13 10:11:53;;;;;;;13.67;12.43;;;;;;;;;;4951417;28;20256;-72
2022/11/13 10:14:53;;;;;;;14.33;12.93;;;;;;;;;;4957032;28;20252;-71
2022/11/13 10:17:38;;;;;;;14.43;13.03;;;;;;;;;;4976801;28;20235;-73
2022/11/13 10:20:30;;;;;;;13.13;11.90;;;;;;;;;;4973555;28;20677;-73
2022/11/13 10:23:19;;;;;;;14.20;12.90;;;;;;;;;;4991074;28;20220;-71
2022/11/13 10:26:13;;;;;;;13.77;12.43;;;;;;;;;;4990746;28;20240;-75
2022/11/13 10:29:12;;;;;;;13.17;11.90;;;;;;;;;;4950019;28;20282;-74
2022/11/13 10:31:59;;;;;;;14.20;12.80;;;;;;;;;;4957861;28;20225;-71
2022/11/13 10:34:47;;;;;;;12.23;11.13;;;;;;;;;;4974663;28;20236;-72
2022/11/13 10:37:43;;;;;;;12.67;11.37;;;;;;;;;;4984884;28;20239;-74
2022/11/13 10:40:32;;;;;;;11.90;10.83;;;;;;;;;;4989687;28;20232;-72
2022/11/13 10:43:21;;;;;;;12.13;10.80;;;;;;;;;;4966503;28;20708;-75
2022/11/13 10:46:08;;;;;;;11.90;10.67;;;;;;;;;;4969314;28;20283;-72
2022/11/13 10:48:55;;;;;;;11.13;10.13;;;;;;;;;;4979020;28;20280;-74
2022/11/13 10:51:42;;;;;;;10.53;9.57;;;;;;;;;;4980381;28;20377;-72
2022/11/13 10:54:32;;;;;;;9.33;8.27;;;;;;;;;;4953821;28;20264;-72
2022/11/13 10:57:33;;;;;;;10.17;9.17;;;;;;;;;;4956890;28;20228;-75
2022/11/13 11:00:24;;;;;;;9.97;9.07;;;;;;;;;;4982434;28;20327;-74
2022/11/13 11:03:17;;;;;;;11.33;9.47;;;;;;;;;;4955897;28;20308;-75
2022/11/13 11:06:02;;;;;;;10.50;9.53;;;;;;;;;;4954231;28;20304;-73
2022/11/13 11:08:46;;;;;;;9.83;8.83;;;;;;;;;;4946591;28;20703;-73
2022/11/13 11:14:36;;;;;;;10.13;9.23;;;;;;;;;;4981165;28;20271;-73
2022/11/13 11:17:23;;;;;;;9.47;8.67;;;;;;;;;;4965506;28;20606;-73
2022/11/13 11:20:13;;;;;;;9.83;8.93;;;;;;;;;;4965781;28;20718;-73
2022/11/13 11:23:42;;;;;;;9.43;8.63;;;;;;;;;;4976684;28;20822;-72
2022/11/13 11:26:33;;;;;;;9.77;8.77;;;;;;;;;;4974751;28;20384;-74
2022/11/13 11:29:25;;;;;;;9.77;8.90;;;;;;;;;;4953528;28;20239;-72
2022/11/13 11:32:56;;;;;;;10.27;9.37;;;;;;;;;;4987768;28;20228;-72
2022/11/13 11:35:59;;;;;;;11.13;9.93;;;;;;;;;;4970957;28;20312;-73
2022/11/13 11:39:10;;;;;;;9.57;8.77;;;;;;;;;;4959718;28;20633;-72
2022/11/13 11:42:03;;;;;;;10.43;9.43;;;;;;;;;;4987380;28;20271;-73
2022/11/13 11:44:53;;;;;;;8.87;8.07;;;;;;;;;;5002185;28;20874;-74
2022/11/13 11:48:03;;;;;;;9.63;8.73;;;;;;;;;;4970088;28;20661;-72
2022/11/13 11:51:23;;;;;;;9.73;8.93;;;;;;;;;;4979310;28;20750;-75
2022/11/13 11:54:32;;;;;;;10.13;9.27;;;;;;;;;;4966856;28;20280;-74
2022/11/13 11:57:38;;;;;;;9.27;8.37;;;;;;;;;;4967151;28;20236;-75
2022/11/13 12:00:24;;;;;;;9.90;9.00;;;;;;;;;;4968343;28;20229;-73
2022/11/13 12:03:24;;;;;;;10.67;9.77;;;;;;;;;;4947123;28;20248;-74
2022/11/13 12:06:29;;;;;;;11.13;10.07;;;;;;;;;;4969011;28;20285;-74
2022/11/13 12:09:18;;;;;;;11.57;10.40;;;;;;;;;;4968608;28;20229;-73
2022/11/13 12:12:05;;;;;;;11.77;9.97;;;;;;;;;;4968356;28;20266;-72
2022/11/13 12:14:52;;;;;;;11.27;10.23;;;;;;;;;;4992852;28;20957;-75
2022/11/13 12:17:36;;;;;;;11.70;10.70;;;;;;;;;;4987725;28;20263;-73
2022/11/13 12:20:48;;;;;;;11.83;10.67;;;;;;;;;;4987438;28;20216;-77
2022/11/13 12:24:09;;;;;;;12.23;11.03;;;;;;;;;;4973130;28;20722;-75
2022/11/13 12:27:27;;;;;;;12.53;11.33;;;;;;;;;;4976813;28;20228;-74
2022/11/13 12:30:15;;;;;;;12.80;11.50;;;;;;;;;;4974460;28;20769;-72
2022/11/13 12:33:21;;;;;;;12.90;11.70;;;;;;;;;;4991733;28;20236;-73
2022/11/13 12:36:21;;;;;;;12.17;11.07;;;;;;;;;;4988157;28;20332;-73
2022/11/13 12:39:20;;;;;;;13.00;11.80;;;;;;;;;;4950807;28;20306;-73
2022/11/13 12:42:21;;;;;;;12.87;11.53;;;;;;;;;;4976353;28;20299;-75
2022/11/13 12:45:12;;;;;;;13.00;11.40;;;;;;;;;;4955920;28;20311;-71
2022/11/13 12:48:20;;;;;;;13.23;11.93;;;;;;;;;;4992658;28;20356;-72
2022/11/13 12:51:08;;;;;;;13.90;12.60;;;;;;;;;;4963745;28;20275;-74
2022/11/13 12:53:53;;;;;;;13.73;12.50;;;;;;;;;;4963590;28;20336;-73
2022/11/13 12:56:39;;;;;;;14.07;12.67;;;;;;;;;;4964360;28;20236;-72
2022/11/13 12:59:31;;;;;;;15.40;13.50;;;;;;;;;;4967960;28;20223;-73
2022/11/13 13:02:22;;;;;;;15.43;13.83;;;;;;;;;;4974694;28;20252;-72
2022/11/13 13:05:29;;;;;;;16.17;14.53;;;;;;;;;;4975910;28;20770;-72
2022/11/13 13:08:36;;;;;;;18.20;16.07;;;;;;;;;;4975641;28;20228;-73
2022/11/13 13:11:48;;;;;;;17.30;15.20;;;;;;;;;;4987343;28;20256;-71
2022/11/13 13:14:55;;;;;;;19.57;17.47;;;;;;;;;;4991207;28;20291;-73
2022/11/13 13:17:39;;;;;;;20.57;18.07;;;;;;;;;;4986710;28;20304;-74
2022/11/13 13:20:32;;;;;;;21.60;19.40;;;;;;;;;;4976289;28;20634;-74
2022/11/13 13:23:26;;;;;;;22.57;20.17;;;;;;;;;;4967270;28;20707;-73
2022/11/13 13:26:28;;;;;;;23.37;20.73;;;;;;;;;;4961550;28;20244;-74
2022/11/13 13:29:17;;;;;;;24.80;22.03;;;;;;;;;;4961286;28;20224;-74
2022/11/13 13:32:41;;;;;;;23.40;20.87;;;;;;;;;;4953414;28;20268;-73
2022/11/13 13:35:46;;;;;;;23.20;20.80;;;;;;;;;;4975615;28;20231;-73
2022/11/13 13:38:35;;;;;;;24.67;22.03;;;;;;;;;;4954171;28;20263;-73
2022/11/13 13:41:44;;;;;;;25.10;22.40;;;;;;;;;;4986444;28;20233;-74
2022/11/13 13:44:54;;;;;;;24.77;22.17;;;;;;;;;;4987181;28;20256;-73
2022/11/13 13:47:48;;;;;;;24.03;21.43;;;;;;;;;;4971935;28;20634;-72
2022/11/13 13:50:34;;;;;;;24.67;22.03;;;;;;;;;;4974618;28;20316;-73
2022/11/13 13:53:26;;;;;;;23.40;21.10;;;;;;;;;;4981191;28;20236;-73
2022/11/13 13:56:13;;;;;;;24.57;22.17;;;;;;;;;;4981817;28;20236;-74
2022/11/13 13:58:57;;;;;;;27.23;22.90;;;;;;;;;;4967775;28;20657;-75
2022/11/13 14:01:57;;;;;;;23.53;21.03;;;;;;;;;;4951489;28;20232;-71
2022/11/13 14:04:45;;;;;;;22.97;20.63;;;;;;;;;;4955348;28;20249;-73
2022/11/13 14:07:29;;;;;;;25.53;20.17;;;;;;;;;;4970768;28;20313;-74
2022/11/13 14:10:15;;;;;;;20.70;18.50;;;;;;;;;;4983141;28;20789;-72
2022/11/13 14:12:59;;;;;;;20.87;18.77;;;;;;;;;;4965353;28;20244;-72
2022/11/13 14:15:43;;;;;;;23.67;18.23;;;;;;;;;;4979071;28;20312;-74
2022/11/13 14:18:27;;;;;;;22.67;20.33;;;;;;;;;;4975714;28;20223;-72
2022/11/13 14:21:20;;;;;;;21.63;19.47;;;;;;;;;;4977454;28;20610;-71
2022/11/13 14:24:04;;;;;;;24.20;19.70;;;;;;;;;;4981209;28;20260;-71
2022/11/13 14:26:49;;;;;;;21.20;18.93;;;;;;;;;;4965550;28;20765;-75
2022/11/13 14:29:45;;;;;;;22.37;19.93;;;;;;;;;;4970194;28;20275;-72
2022/11/13 14:32:37;;;;;;;22.43;19.83;;;;;;;;;;4959110;28;20243;-74
2022/11/13 14:35:51;;;;;;;21.43;19.23;;;;;;;;;;4979281;28;20236;-75
2022/11/13 14:38:40;;;;;;;24.50;19.50;;;;;;;;;;4966621;28;20244;-71
2022/11/13 14:41:45;;;;;;;26.47;19.57;;;;;;;;;;4966704;28;20333;-73
2022/11/13 14:44:35;;;;;;;22.03;19.63;;;;;;;;;;4978828;28;20295;-72
2022/11/13 14:47:25;;;;;;;43.93;33.80;;;;;;;;;;4975603;28;20909;-73
2022/11/13 14:50:24;;;;;;;22.27;19.87;;;;;;;;;;4987939;28;20225;-73
2022/11/13 14:53:11;;;;;;;19.23;17.23;;;;;;;;;;4980878;28;20730;-73
2022/11/13 14:56:00;;;;;;;24.53;22.10;;;;;;;;;;4968872;28;20717;-73
2022/11/13 14:58:47;;;;;;;19.67;17.60;;;;;;;;;;4982547;28;20353;-74
2022/11/13 15:01:31;;;;;;;20.10;18.00;;;;;;;;;;4981576;28;20272;-72
2022/11/13 15:04:15;;;;;;;17.80;15.97;;;;;;;;;;4964031;28;20727;-73
2022/11/13 15:07:01;;;;;;;18.73;16.73;;;;;;;;;;4968987;28;20300;-74
2022/11/13 15:09:45;;;;;;;18.63;16.07;;;;;;;;;;4980503;28;20304;-75
2022/11/13 15:12:31;;;;;;;17.03;15.33;;;;;;;;;;4981164;28;20267;-71
2022/11/13 15:15:22;;;;;;;18.13;15.43;;;;;;;;;;4980746;28;20630;-75
2022/11/13 15:18:12;;;;;;;18.93;15.77;;;;;;;;;;4975984;28;20232;-72
2022/11/13 15:20:56;;;;;;;17.83;15.80;;;;;;;;;;4962873;28;20344;-74
2022/11/13 15:23:43;;;;;;;18.43;16.53;;;;;;;;;;4993096;28;20244;-73
2022/11/13 15:26:28;;;;;;;18.50;16.70;;;;;;;;;;4966244;28;20235;-74
2022/11/13 15:29:14;;;;;;;18.97;17.07;;;;;;;;;;4992322;28;20225;-74
2022/11/13 15:31:58;;;;;;;19.43;17.53;;;;;;;;;;4978199;28;21107;-74
2022/11/13 15:34:42;;;;;;;19.90;17.10;;;;;;;;;;4962655;28;20272;-75
2022/11/13 15:37:26;;;;;;;21.30;16.73;;;;;;;;;;4979633;28;20329;-73
2022/11/13 15:40:14;;;;;;;20.17;18.13;;;;;;;;;;4971965;28;20216;-74
2022/11/13 15:43:00;;;;;;;18.20;16.27;;;;;;;;;;4980208;28;20248;-74
2022/11/13 15:45:46;;;;;;;19.60;17.40;;;;;;;;;;4990761;28;20232;-74
2022/11/13 15:48:30;;;;;;;19.40;17.37;;;;;;;;;;4991403;28;20228;-71
2022/11/13 15:51:18;;;;;;;18.77;16.87;;;;;;;;;;4964364;28;20287;-73
2022/11/13 15:54:11;;;;;;;19.53;17.43;;;;;;;;;;4980443;28;20248;-74
2022/11/13 15:56:59;;;;;;;19.70;17.60;;;;;;;;;;4989730;28;20272;-72
2022/11/13 15:59:46;;;;;;;18.67;16.77;;;;;;;;;;4977503;28;20282;-73
2022/11/13 16:02:35;;;;;;;20.07;17.97;;;;;;;;;;4975664;28;20232;-73
2022/11/13 16:05:22;;;;;;;21.60;17.67;;;;;;;;;;4976771;28;20749;-73
2022/11/13 16:08:12;;;;;;;19.67;16.97;;;;;;;;;;4980628;28;20236;-77
2022/11/13 16:10:59;;;;;;;20.57;17.73;;;;;;;;;;4964249;28;20215;-74
2022/11/13 16:13:46;;;;;;;20.23;17.80;;;;;;;;;;4986070;28;20232;-74
2022/11/13 16:16:37;;;;;;;21.13;16.20;;;;;;;;;;4978253;28;20347;-73
2022/11/13 16:19:27;;;;;;;19.00;17.03;;;;;;;;;;4964756;28;20733;-74
2022/11/13 16:22:19;;;;;;;18.93;16.93;;;;;;;;;;4979254;28;20738;-72
2022/11/13 16:25:05;;;;;;;19.83;17.63;;;;;;;;;;4990910;28;20288;-74
2022/11/13 16:27:49;;;;;;;19.30;17.20;;;;;;;;;;4977032;28;20277;-73
2022/11/13 16:31:02;;;;;;;22.57;20.17;;;;;;;;;;4966146;28;20263;-73